Time;durP1;ratioP1;P1;durP2;ratioP2;P2;SDS_P1;SDS_P2;PMS_P1;PMS_P2;Temp;Humidity;BMP_temperature;BMP_pressure;BME280_temperature;BME280_humidity;BME280_pressure;Samples;Min_cycle;Max_cycle;Signal;HPM_P1;HPM_P2
2022/04/05 00:03:57;;;;;;;8.00;3.75;;;;;;;;;;10328147;28;20478;-61
2022/04/05 00:08:57;;;;;;;6.15;3.63;;;;;;;;;;10327004;28;20034;-61
2022/04/05 00:13:58;;;;;;;6.53;3.55;;;;;;;;;;10327534;28;20064;-61
2022/04/05 00:18:59;;;;;;;6.07;3.03;;;;;;;;;;10326823;28;20114;-61
2022/04/05 00:23:59;;;;;;;7.35;3.80;;;;;;;;;;10327419;28;20531;-61
2022/04/05 00:29:00;;;;;;;5.45;3.60;;;;;;;;;;10326931;28;20600;-61
2022/04/05 00:34:00;;;;;;;5.15;3.10;;;;;;;;;;10327104;28;20521;-61
2022/04/05 00:39:01;;;;;;;6.65;3.60;;;;;;;;;;10326286;28;20486;-61
2022/04/05 00:44:02;;;;;;;9.77;3.67;;;;;;;;;;10326955;28;20031;-61
2022/04/05 00:49:03;;;;;;;4.43;2.88;;;;;;;;;;10330821;28;20031;-61
2022/04/05 00:54:05;;;;;;;5.70;3.25;;;;;;;;;;10335126;28;20493;-61
2022/04/05 00:59:07;;;;;;;5.57;3.42;;;;;;;;;;10334643;28;20062;-61
2022/04/05 01:04:10;;;;;;;9.10;3.38;;;;;;;;;;10334564;28;20031;-61
2022/04/05 01:09:10;;;;;;;4.65;3.53;;;;;;;;;;10334026;28;20030;-61
2022/04/05 01:14:11;;;;;;;4.28;3.22;;;;;;;;;;10334552;28;20026;-61
2022/04/05 01:19:11;;;;;;;7.75;3.70;;;;;;;;;;10334484;28;20034;-61
2022/04/05 01:24:14;;;;;;;6.93;3.60;;;;;;;;;;10332898;28;20018;-61
2022/04/05 01:29:18;;;;;;;6.05;3.90;;;;;;;;;;10333691;28;20045;-61
2022/04/05 01:34:24;;;;;;;5.18;3.75;;;;;;;;;;10333194;28;20524;-61
2022/04/05 01:39:28;;;;;;;3.90;3.05;;;;;;;;;;10332955;28;20042;-61
2022/04/05 01:44:31;;;;;;;4.80;3.53;;;;;;;;;;10333256;28;20023;-61
2022/04/05 01:49:32;;;;;;;5.70;3.33;;;;;;;;;;10332412;28;20503;-60
2022/04/05 01:54:33;;;;;;;5.70;3.50;;;;;;;;;;10325183;28;20025;-60
2022/04/05 01:59:37;;;;;;;6.18;3.53;;;;;;;;;;10330957;28;20054;-60
2022/04/05 02:04:39;;;;;;;5.85;3.55;;;;;;;;;;10331759;28;20026;-60
2022/04/05 02:09:39;;;;;;;5.40;3.65;;;;;;;;;;10331959;28;20089;-60
2022/04/05 02:14:40;;;;;;;4.88;3.65;;;;;;;;;;10332227;28;20045;-60
2022/04/05 02:19:41;;;;;;;5.63;3.65;;;;;;;;;;10310119;28;20386;-61
2022/04/05 02:24:42;;;;;;;6.13;3.70;;;;;;;;;;10327589;28;20029;-61
2022/04/05 02:29:42;;;;;;;7.32;4.03;;;;;;;;;;10331271;28;20037;-60
2022/04/05 02:34:43;;;;;;;4.82;3.53;;;;;;;;;;10331339;28;20441;-61
2022/04/05 02:39:43;;;;;;;5.35;3.83;;;;;;;;;;10331157;28;20354;-61
2022/04/05 02:44:44;;;;;;;5.50;3.80;;;;;;;;;;10330576;28;20038;-61
2022/04/05 02:49:44;;;;;;;5.75;3.50;;;;;;;;;;10330550;28;20036;-61
2022/04/05 02:54:45;;;;;;;4.65;3.80;;;;;;;;;;10329556;28;20027;-61
2022/04/05 02:59:46;;;;;;;4.50;3.58;;;;;;;;;;10329981;28;20105;-61
2022/04/05 03:04:46;;;;;;;5.10;3.88;;;;;;;;;;10329792;28;20038;-60
2022/04/05 03:09:47;;;;;;;6.45;4.28;;;;;;;;;;10329670;28;20018;-61
2022/04/05 03:14:47;;;;;;;6.25;4.00;;;;;;;;;;10329224;28;20128;-60
2022/04/05 03:19:48;;;;;;;4.80;3.60;;;;;;;;;;10329752;28;20038;-61
2022/04/05 03:24:49;;;;;;;6.68;4.00;;;;;;;;;;10328507;28;20037;-60
2022/04/05 03:29:49;;;;;;;5.88;4.35;;;;;;;;;;10329075;28;20053;-61
2022/04/05 03:34:51;;;;;;;5.70;3.83;;;;;;;;;;10328285;28;20038;-60
2022/04/05 03:39:52;;;;;;;6.47;4.03;;;;;;;;;;10328489;28;20466;-60
2022/04/05 03:44:52;;;;;;;4.95;3.92;;;;;;;;;;10328273;28;20026;-61
2022/04/05 03:49:54;;;;;;;4.68;3.70;;;;;;;;;;10328369;28;20037;-60
2022/04/05 03:54:55;;;;;;;4.85;3.45;;;;;;;;;;10328087;28;20022;-60
2022/04/05 03:59:55;;;;;;;5.65;4.07;;;;;;;;;;10327761;28;20050;-61
2022/04/05 04:04:56;;;;;;;6.57;4.38;;;;;;;;;;10327148;28;20110;-61
2022/04/05 04:10:02;;;;;;;5.45;3.72;;;;;;;;;;10327479;28;20038;-60
2022/04/05 04:15:04;;;;;;;4.15;3.60;;;;;;;;;;10326987;28;20474;-61
2022/04/05 04:20:06;;;;;;;5.53;3.60;;;;;;;;;;10327683;28;20038;-60
2022/04/05 04:25:07;;;;;;;4.55;4.00;;;;;;;;;;10326379;28;20034;-61
2022/04/05 04:30:08;;;;;;;4.97;3.65;;;;;;;;;;10326926;28;20478;-60
2022/04/05 04:35:09;;;;;;;8.05;3.85;;;;;;;;;;10326733;28;20023;-60
2022/04/05 04:40:10;;;;;;;7.07;4.18;;;;;;;;;;10326748;28;20470;-60
2022/04/05 04:45:11;;;;;;;5.43;3.78;;;;;;;;;;10326282;28;20065;-61
2022/04/05 04:50:12;;;;;;;4.90;3.80;;;;;;;;;;10326265;28;20042;-61
2022/04/05 04:55:13;;;;;;;4.95;3.97;;;;;;;;;;10326917;28;20034;-60
2022/04/05 05:00:14;;;;;;;5.88;4.00;;;;;;;;;;10325920;28;20061;-61
2022/04/05 05:05:21;;;;;;;6.97;3.60;;;;;;;;;;10326415;28;20117;-61
2022/04/05 05:10:25;;;;;;;4.95;3.90;;;;;;;;;;10326371;28;20394;-60
2022/04/05 05:15:27;;;;;;;7.13;3.47;;;;;;;;;;10326063;28;20031;-60
2022/04/05 05:20:28;;;;;;;6.85;3.92;;;;;;;;;;10324578;28;20489;-60
2022/04/05 05:25:28;;;;;;;3.80;3.40;;;;;;;;;;10324818;28;20022;-61
2022/04/05 05:30:29;;;;;;;8.32;3.88;;;;;;;;;;10326072;28;20026;-61
2022/04/05 05:35:30;;;;;;;10.90;4.63;;;;;;;;;;10329789;28;20037;-61
2022/04/05 05:40:30;;;;;;;9.18;4.60;;;;;;;;;;10339878;28;20753;-61
2022/04/05 05:45:36;;;;;;;21.42;4.57;;;;;;;;;;10329858;28;20033;-62
2022/04/05 05:50:36;;;;;;;15.32;4.75;;;;;;;;;;10352668;28;20061;-62
2022/04/05 05:55:37;;;;;;;16.20;5.15;;;;;;;;;;10317526;28;20034;-64
2022/04/05 06:00:38;;;;;;;15.90;5.00;;;;;;;;;;10297573;28;20672;-65
2022/04/05 06:05:39;;;;;;;9.93;4.70;;;;;;;;;;10331125;28;20382;-63
2022/04/05 06:10:39;;;;;;;8.23;4.35;;;;;;;;;;10343580;28;20034;-65
2022/04/05 06:15:40;;;;;;;13.02;4.82;;;;;;;;;;10329072;28;20026;-64
2022/04/05 06:20:41;;;;;;;10.88;4.40;;;;;;;;;;10302747;28;20046;-65
2022/04/05 06:25:41;;;;;;;18.52;4.88;;;;;;;;;;10330118;28;20031;-65
2022/04/05 06:30:42;;;;;;;19.40;4.38;;;;;;;;;;10330900;28;20034;-65
2022/04/05 06:35:50;;;;;;;10.77;4.40;;;;;;;;;;10331516;28;20058;-65
2022/04/05 06:40:52;;;;;;;9.05;4.40;;;;;;;;;;10330497;28;20045;-65
2022/04/05 06:45:53;;;;;;;11.00;4.55;;;;;;;;;;10330298;28;20422;-65
2022/04/05 06:50:53;;;;;;;7.70;4.30;;;;;;;;;;10330828;28;20040;-65
2022/04/05 06:55:54;;;;;;;8.95;4.82;;;;;;;;;;10330314;28;20132;-65
2022/04/05 07:00:55;;;;;;;10.10;4.22;;;;;;;;;;10330263;28;20048;-65
2022/04/05 07:05:57;;;;;;;13.75;4.78;;;;;;;;;;10329922;28;20386;-65
2022/04/05 07:10:58;;;;;;;10.35;4.63;;;;;;;;;;10329623;28;20037;-65
2022/04/05 07:15:59;;;;;;;12.63;4.32;;;;;;;;;;10329600;28;20336;-65
2022/04/05 07:21:01;;;;;;;7.65;3.67;;;;;;;;;;10329866;28;20041;-65
2022/04/05 07:26:02;;;;;;;12.85;3.78;;;;;;;;;;10328932;28;20505;-65
2022/04/05 07:31:03;;;;;;;9.00;3.70;;;;;;;;;;10329081;28;20080;-65
2022/04/05 07:36:04;;;;;;;12.30;4.47;;;;;;;;;;10328702;28;20359;-65
2022/04/05 07:41:04;;;;;;;7.85;4.35;;;;;;;;;;10329073;28;20121;-65
2022/04/05 07:46:05;;;;;;;12.00;4.45;;;;;;;;;;10328314;28;20434;-65
2022/04/05 07:51:06;;;;;;;7.35;3.88;;;;;;;;;;10328306;28;20022;-65
2022/04/05 07:56:07;;;;;;;5.38;3.60;;;;;;;;;;10325833;28;20493;-65
2022/04/05 08:01:09;;;;;;;5.70;4.03;;;;;;;;;;10327680;28;20061;-65
2022/04/05 08:06:10;;;;;;;7.10;3.90;;;;;;;;;;10327745;28;20022;-64
2022/04/05 08:11:11;;;;;;;9.02;3.70;;;;;;;;;;10327717;28;20029;-65
2022/04/05 08:16:11;;;;;;;5.82;3.60;;;;;;;;;;10327893;28;20465;-65
2022/04/05 08:21:12;;;;;;;10.18;3.85;;;;;;;;;;10327420;28;20133;-65
2022/04/05 08:26:12;;;;;;;9.52;4.07;;;;;;;;;;10327620;28;20066;-65
2022/04/05 08:31:13;;;;;;;6.05;3.40;;;;;;;;;;10326954;28;20058;-65
2022/04/05 08:36:14;;;;;;;6.68;3.80;;;;;;;;;;10327139;28;20027;-65
2022/04/05 08:41:19;;;;;;;10.68;4.10;;;;;;;;;;10326556;28;20038;-65
2022/04/05 08:46:21;;;;;;;6.93;3.47;;;;;;;;;;10327084;28;20026;-65
2022/04/05 08:51:22;;;;;;;6.07;3.88;;;;;;;;;;10326547;28;20508;-65
2022/04/05 08:56:26;;;;;;;5.75;3.60;;;;;;;;;;10326187;28;20042;-65
2022/04/05 09:01:29;;;;;;;6.82;3.50;;;;;;;;;;10326241;28;20066;-65
2022/04/05 09:06:32;;;;;;;7.85;3.55;;;;;;;;;;10326244;28;20422;-65
2022/04/05 09:11:34;;;;;;;5.97;3.50;;;;;;;;;;10332763;28;20065;-65
2022/04/05 09:16:35;;;;;;;8.55;3.75;;;;;;;;;;10334836;28;20037;-65
2022/04/05 09:22:01;;;;;;;5.22;3.90;;;;;;;;;;10333760;28;20031;-65
2022/04/05 09:27:03;;;;;;;7.30;3.50;;;;;;;;;;10333757;28;20034;-65
2022/04/05 09:32:04;;;;;;;4.03;3.03;;;;;;;;;;10316794;28;20390;-65
2022/04/05 09:37:09;;;;;;;6.32;3.90;;;;;;;;;;10291567;28;20037;-65
2022/04/05 09:42:10;;;;;;;8.77;3.70;;;;;;;;;;10301064;28;20122;-65
2022/04/05 09:47:17;;;;;;;5.70;3.30;;;;;;;;;;10295309;28;20430;-65
2022/04/05 09:52:24;;;;;;;7.10;2.80;;;;;;;;;;10313404;28;20033;-65
2022/04/05 09:57:33;;;;;;;4.82;3.08;;;;;;;;;;10306481;28;20533;-64
2022/04/05 10:02:33;;;;;;;10.85;3.60;;;;;;;;;;10312035;28;20197;-64
2022/04/05 10:07:35;;;;;;;4.43;3.40;;;;;;;;;;10332407;28;20543;-64
2022/04/05 10:12:36;;;;;;;4.95;3.28;;;;;;;;;;10306655;28;20038;-64
2022/04/05 10:17:44;;;;;;;5.28;3.92;;;;;;;;;;10321637;28;20033;-65
2022/04/05 10:22:56;;;;;;;6.43;3.05;;;;;;;;;;10303924;28;20185;-64
2022/04/05 10:27:57;;;;;;;4.75;3.38;;;;;;;;;;10297991;28;20483;-64
2022/04/05 10:33:23;;;;;;;4.85;2.95;;;;;;;;;;10309892;28;20034;-64
2022/04/05 10:38:24;;;;;;;8.18;3.60;;;;;;;;;;10330199;28;20022;-64
2022/04/05 10:43:25;;;;;;;3.58;2.85;;;;;;;;;;10320122;28;20047;-64
2022/04/05 10:48:28;;;;;;;4.43;3.35;;;;;;;;;;10319646;28;20026;-64
2022/04/05 10:53:38;;;;;;;8.50;2.92;;;;;;;;;;10290802;28;20073;-64
2022/04/05 10:59:05;;;;;;;3.40;2.90;;;;;;;;;;10296864;28;20034;-64
2022/04/05 11:04:16;;;;;;;4.80;3.10;;;;;;;;;;10330070;28;20030;-64
2022/04/05 11:09:28;;;;;;;4.50;2.70;;;;;;;;;;10296318;28;20313;-64
2022/04/05 11:14:52;;;;;;;4.35;3.17;;;;;;;;;;10329972;28;20109;-64
2022/04/05 11:19:56;;;;;;;5.10;3.28;;;;;;;;;;10328685;28;20529;-64
2022/04/05 11:25:10;;;;;;;4.88;3.25;;;;;;;;;;10310107;28;20035;-64
2022/04/05 11:30:26;;;;;;;6.85;3.50;;;;;;;;;;10288869;28;20154;-64
2022/04/05 11:35:27;;;;;;;3.95;3.00;;;;;;;;;;10323284;28;20034;-64
2022/04/05 11:40:30;;;;;;;3.20;2.90;;;;;;;;;;10306394;28;20098;-64
2022/04/05 11:45:32;;;;;;;3.83;2.95;;;;;;;;;;10316692;28;20453;-64
2022/04/05 11:50:37;;;;;;;4.53;2.88;;;;;;;;;;10298549;28;20054;-64
2022/04/05 12:00:58;;;;;;;6.32;3.15;;;;;;;;;;10319263;28;20125;-64
2022/04/05 12:05:58;;;;;;;6.57;3.00;;;;;;;;;;10302371;28;20030;-64
2022/04/05 12:10:59;;;;;;;10.07;3.13;;;;;;;;;;10307874;28;20039;-64
2022/04/05 12:16:02;;;;;;;4.63;2.85;;;;;;;;;;10293368;28;20030;-64
2022/04/05 12:21:06;;;;;;;6.32;2.78;;;;;;;;;;10359564;28;20033;-65
2022/04/05 12:26:16;;;;;;;3.38;2.85;;;;;;;;;;10326198;28;20080;-65
2022/04/05 12:31:24;;;;;;;5.53;3.42;;;;;;;;;;10344445;28;20031;-64
2022/04/05 12:36:34;;;;;;;3.67;2.92;;;;;;;;;;10289603;28;20030;-65
2022/04/05 12:41:40;;;;;;;10.52;3.10;;;;;;;;;;10289568;28;20493;-64
2022/04/05 12:46:49;;;;;;;6.18;2.70;;;;;;;;;;10296326;28;20062;-66
2022/04/05 12:51:51;;;;;;;;;;;;;;;;;;10311723;28;20116;-65
2022/04/05 12:56:51;;;;;;;6.95;3.05;;;;;;;;;;10317810;28;19918;-65
2022/04/05 13:01:55;;;;;;;6.32;2.85;;;;;;;;;;10326369;28;20463;-64
2022/04/05 13:07:00;;;;;;;5.47;3.35;;;;;;;;;;10323895;28;20434;-65
2022/04/05 13:12:18;;;;;;;3.92;2.72;;;;;;;;;;10310657;28;20488;-65
2022/04/05 13:17:18;;;;;;;6.20;3.13;;;;;;;;;;10306174;28;20031;-64
2022/04/05 13:22:19;;;;;;;7.28;2.88;;;;;;;;;;10323899;28;20463;-64
2022/04/05 13:27:21;;;;;;;6.95;3.10;;;;;;;;;;10297945;28;20030;-64
2022/04/05 13:32:23;;;;;;;7.43;2.72;;;;;;;;;;10282112;28;20069;-64
2022/04/05 13:37:24;;;;;;;5.47;2.85;;;;;;;;;;10295446;28;20031;-64
2022/04/05 13:42:25;;;;;;;5.07;2.80;;;;;;;;;;10291458;28;20408;-64
2022/04/05 13:47:25;;;;;;;5.13;2.67;;;;;;;;;;10290515;28;20027;-64
2022/04/05 13:52:26;;;;;;;3.83;2.53;;;;;;;;;;10303867;28;20019;-64
2022/04/05 13:57:26;;;;;;;6.30;2.75;;;;;;;;;;10296720;28;20049;-64
2022/04/05 14:02:27;;;;;;;4.63;2.90;;;;;;;;;;10295239;28;20038;-63
2022/04/05 14:07:27;;;;;;;6.57;2.72;;;;;;;;;;10303336;28;20560;-64
2022/04/05 14:12:28;;;;;;;5.53;3.03;;;;;;;;;;10348531;28;20069;-64
2022/04/05 14:17:28;;;;;;;5.28;2.92;;;;;;;;;;10340023;28;20029;-64
2022/04/05 14:22:29;;;;;;;3.33;2.72;;;;;;;;;;10305540;28;20030;-64
2022/04/05 14:27:31;;;;;;;7.85;3.10;;;;;;;;;;10302004;28;20046;-65
2022/04/05 14:32:31;;;;;;;6.95;2.80;;;;;;;;;;10312920;28;20242;-62
2022/04/05 14:37:32;;;;;;;8.18;3.10;;;;;;;;;;10300828;28;20266;-63
2022/04/05 14:42:33;;;;;;;8.70;2.95;;;;;;;;;;10290659;28;20053;-63
2022/04/05 14:47:34;;;;;;;6.20;2.83;;;;;;;;;;10326386;28;20478;-63
2022/04/05 14:52:35;;;;;;;14.57;3.25;;;;;;;;;;10316778;28;20026;-63
2022/04/05 14:57:35;;;;;;;7.55;3.20;;;;;;;;;;10325261;28;20054;-63
2022/04/05 15:02:36;;;;;;;5.63;3.28;;;;;;;;;;10327179;28;20263;-63
2022/04/05 15:07:36;;;;;;;15.05;3.67;;;;;;;;;;10327926;28;20182;-63
2022/04/05 15:12:38;;;;;;;5.38;2.90;;;;;;;;;;10329986;28;20018;-63
2022/04/05 15:17:39;;;;;;;6.20;2.47;;;;;;;;;;10328709;28;20034;-63
2022/04/05 15:22:39;;;;;;;8.13;3.47;;;;;;;;;;10329864;28;20044;-63
2022/04/05 15:27:41;;;;;;;5.32;2.75;;;;;;;;;;10329544;28;20085;-63
2022/04/05 15:32:45;;;;;;;2.63;2.30;;;;;;;;;;10329120;28;20034;-63
2022/04/05 15:37:45;;;;;;;5.10;3.10;;;;;;;;;;10327475;28;20074;-63
2022/04/05 15:42:46;;;;;;;5.68;2.80;;;;;;;;;;10329215;28;20034;-63
2022/04/05 15:47:48;;;;;;;6.00;2.85;;;;;;;;;;10327890;28;20030;-63
2022/04/05 15:52:49;;;;;;;6.88;2.90;;;;;;;;;;10329025;28;20034;-63
2022/04/05 15:57:49;;;;;;;4.78;2.55;;;;;;;;;;10328024;28;20409;-63
2022/04/05 16:02:50;;;;;;;3.78;2.38;;;;;;;;;;10327763;28;20119;-63
2022/04/05 16:07:51;;;;;;;6.18;2.70;;;;;;;;;;10327868;28;20085;-63
2022/04/05 16:12:52;;;;;;;5.88;2.83;;;;;;;;;;10328198;28;20030;-63
2022/04/05 16:17:54;;;;;;;3.58;2.45;;;;;;;;;;10326252;28;20113;-63
2022/04/05 16:22:55;;;;;;;4.80;2.20;;;;;;;;;;10326571;28;20088;-63
2022/04/05 16:27:55;;;;;;;2.85;2.08;;;;;;;;;;10309934;28;20081;-63
2022/04/05 16:32:56;;;;;;;3.65;2.78;;;;;;;;;;10309901;28;20081;-59
2022/04/05 16:37:57;;;;;;;6.90;2.92;;;;;;;;;;10316095;28;20026;-62
2022/04/05 16:42:57;;;;;;;8.35;2.50;;;;;;;;;;10327525;28;20118;-62
2022/04/05 16:47:58;;;;;;;8.48;2.88;;;;;;;;;;10344091;28;20025;-62
2022/04/05 16:52:59;;;;;;;4.18;2.50;;;;;;;;;;10347387;28;20033;-65
2022/04/05 16:57:59;;;;;;;5.90;2.78;;;;;;;;;;10336080;28;20086;-63
2022/04/05 17:03:00;;;;;;;3.33;2.22;;;;;;;;;;10338768;28;20403;-61
2022/04/05 17:08:01;;;;;;;7.07;2.60;;;;;;;;;;10331211;28;20026;-61
2022/04/05 17:13:02;;;;;;;3.47;2.15;;;;;;;;;;10330379;28;20097;-61
2022/04/05 17:18:03;;;;;;;5.28;2.20;;;;;;;;;;10332744;28;20030;-61
2022/04/05 17:23:03;;;;;;;6.65;2.35;;;;;;;;;;10317711;28;20041;-61
2022/04/05 17:28:05;;;;;;;3.75;2.10;;;;;;;;;;10319911;28;20027;-61
2022/04/05 17:33:05;;;;;;;6.90;2.55;;;;;;;;;;10328263;28;20034;-62
2022/04/05 17:38:07;;;;;;;8.60;2.47;;;;;;;;;;10321713;28;20033;-62
2022/04/05 17:43:08;;;;;;;4.00;2.30;;;;;;;;;;10322670;28;20109;-61
2022/04/05 17:48:09;;;;;;;4.78;2.40;;;;;;;;;;10326100;28;20025;-61
2022/04/05 17:53:09;;;;;;;6.15;2.20;;;;;;;;;;10292415;28;20050;-65
2022/04/05 17:58:10;;;;;;;4.93;2.38;;;;;;;;;;10309182;28;20562;-61
2022/04/05 18:03:11;;;;;;;5.55;2.50;;;;;;;;;;10318908;28;20332;-62
2022/04/05 18:08:12;;;;;;;4.93;2.50;;;;;;;;;;10295757;28;20034;-62
2022/04/05 18:13:14;;;;;;;4.30;2.60;;;;;;;;;;10323900;28;20022;-63
2022/04/05 18:18:15;;;;;;;16.52;4.72;;;;;;;;;;10315321;28;20034;-62
2022/04/05 18:23:17;;;;;;;15.52;4.35;;;;;;;;;;10298349;28;20031;-61
2022/04/05 18:28:18;;;;;;;9.80;3.63;;;;;;;;;;10289305;28;20026;-61
2022/04/05 18:33:19;;;;;;;5.60;2.92;;;;;;;;;;10290911;28;20031;-61
2022/04/05 18:38:19;;;;;;;9.35;3.30;;;;;;;;;;10290725;28;20039;-60
2022/04/05 18:43:20;;;;;;;9.30;3.40;;;;;;;;;;10290320;28;20143;-62
2022/04/05 18:48:22;;;;;;;7.03;3.05;;;;;;;;;;10290797;28;20030;-61
2022/04/05 18:53:23;;;;;;;4.57;2.55;;;;;;;;;;10290224;28;20118;-63
2022/04/05 18:58:24;;;;;;;8.93;2.85;;;;;;;;;;10290100;28;20047;-60
2022/04/05 19:03:25;;;;;;;10.10;2.53;;;;;;;;;;10287966;28;20471;-61
2022/04/05 19:08:26;;;;;;;7.88;2.53;;;;;;;;;;10256248;28;20526;-61
2022/04/05 19:13:27;;;;;;;6.50;2.85;;;;;;;;;;10284409;28;20054;-61
2022/04/05 19:18:29;;;;;;;11.13;3.13;;;;;;;;;;10263290;28;20122;-61
2022/04/05 19:23:31;;;;;;;6.25;2.47;;;;;;;;;;10278555;28;20055;-61
2022/04/05 19:28:31;;;;;;;10.95;3.08;;;;;;;;;;10285923;28;20035;-60
2022/04/05 19:33:35;;;;;;;7.00;2.50;;;;;;;;;;10286486;28;20027;-60
2022/04/05 19:38:36;;;;;;;12.10;2.85;;;;;;;;;;10288699;28;20035;-60
2022/04/05 19:43:38;;;;;;;4.70;2.53;;;;;;;;;;10288368;28;20035;-60
2022/04/05 19:48:40;;;;;;;6.13;2.85;;;;;;;;;;10288162;28;20481;-60
2022/04/05 19:53:41;;;;;;;5.15;2.60;;;;;;;;;;10288705;28;20029;-60
2022/04/05 19:58:42;;;;;;;4.07;2.42;;;;;;;;;;10258405;28;20512;-68
2022/04/05 20:03:42;;;;;;;2.35;2.15;;;;;;;;;;10283240;28;20042;-68
2022/04/05 20:08:43;;;;;;;6.30;2.30;;;;;;;;;;10287672;28;20113;-68
2022/04/05 20:13:44;;;;;;;6.35;2.40;;;;;;;;;;10287560;28;20506;-68
2022/04/05 20:18:47;;;;;;;4.55;2.22;;;;;;;;;;10287196;28;20360;-70
2022/04/05 20:23:49;;;;;;;7.68;2.28;;;;;;;;;;10286201;28;20054;-68
2022/04/05 20:28:53;;;;;;;3.97;2.70;;;;;;;;;;10286918;28;20031;-69
2022/04/05 20:33:53;;;;;;;11.10;2.70;;;;;;;;;;10285454;28;20034;-70
2022/04/05 20:38:54;;;;;;;2.40;2.15;;;;;;;;;;10247955;28;20042;-68
2022/04/05 20:43:55;;;;;;;10.85;2.78;;;;;;;;;;10246879;28;20031;-70
2022/04/05 20:48:55;;;;;;;2.50;2.30;;;;;;;;;;10246755;28;20391;-71
2022/04/05 20:53:56;;;;;;;7.78;2.47;;;;;;;;;;10246915;28;20058;-71
2022/04/05 20:58:56;;;;;;;10.18;3.08;;;;;;;;;;10286036;28;20514;-72
2022/04/05 21:03:58;;;;;;;19.30;3.63;;;;;;;;;;10287734;28;20046;-71
2022/04/05 21:09:00;;;;;;;10.13;3.00;;;;;;;;;;10295874;28;20488;-67
2022/04/05 21:14:01;;;;;;;9.75;3.33;;;;;;;;;;10291248;28;20027;-67
2022/04/05 21:19:01;;;;;;;7.30;3.45;;;;;;;;;;10297608;28;20078;-67
2022/04/05 21:24:02;;;;;;;13.77;3.15;;;;;;;;;;10299250;28;20153;-68
2022/04/05 21:34:22;;;;;;;13.73;3.17;;;;;;;;;;10276194;28;20030;-69
2022/04/05 21:39:24;;;;;;;10.43;3.00;;;;;;;;;;10284585;28;20430;-70
2022/04/05 21:44:25;;;;;;;11.52;2.92;;;;;;;;;;10283555;28;20082;-67
2022/04/05 21:49:26;;;;;;;10.82;2.80;;;;;;;;;;10277920;28;20084;-68
2022/04/05 21:54:27;;;;;;;11.90;3.22;;;;;;;;;;10258686;28;20035;-67
2022/04/05 21:59:28;;;;;;;11.32;3.83;;;;;;;;;;10258522;28;20039;-68
2022/04/05 22:04:29;;;;;;;8.70;3.42;;;;;;;;;;10269034;28;20035;-67
2022/04/05 22:09:30;;;;;;;11.60;3.13;;;;;;;;;;10280865;28;20033;-67
2022/04/05 22:14:30;;;;;;;9.40;3.38;;;;;;;;;;10282116;28;20030;-69
2022/04/05 22:19:31;;;;;;;13.52;3.25;;;;;;;;;;10281178;28;20042;-62
2022/04/05 22:24:34;;;;;;;13.75;2.67;;;;;;;;;;10286157;28;20023;-63
2022/04/05 22:29:35;;;;;;;18.23;3.50;;;;;;;;;;10285373;28;20035;-63
2022/04/05 22:34:37;;;;;;;17.90;4.03;;;;;;;;;;10318459;28;20105;-63
2022/04/05 22:39:39;;;;;;;9.27;2.90;;;;;;;;;;10331551;28;20031;-65
2022/04/05 22:44:39;;;;;;;8.88;2.88;;;;;;;;;;10330816;28;20057;-64
2022/04/05 22:49:40;;;;;;;8.27;2.90;;;;;;;;;;10330875;28;20018;-64
2022/04/05 22:54:40;;;;;;;14.20;3.40;;;;;;;;;;10331039;28;20582;-64
2022/04/05 22:59:42;;;;;;;5.90;2.88;;;;;;;;;;10329871;28;20482;-64
2022/04/05 23:04:42;;;;;;;9.23;3.22;;;;;;;;;;10330477;28;20496;-66
2022/04/05 23:09:43;;;;;;;5.63;2.92;;;;;;;;;;10330076;28;20046;-64
2022/04/05 23:14:44;;;;;;;9.63;2.72;;;;;;;;;;10330191;28;20034;-64
2022/04/05 23:19:44;;;;;;;7.65;2.78;;;;;;;;;;10330297;28;20042;-64
2022/04/05 23:24:45;;;;;;;6.88;3.17;;;;;;;;;;10329733;28;20038;-63
2022/04/05 23:29:46;;;;;;;7.93;3.15;;;;;;;;;;10328990;28;20045;-64
2022/04/05 23:34:46;;;;;;;6.55;3.10;;;;;;;;;;10329638;28;20382;-64
2022/04/05 23:39:47;;;;;;;5.15;2.63;;;;;;;;;;10328598;28;20088;-64
2022/04/05 23:44:48;;;;;;;6.00;2.88;;;;;;;;;;10328880;28;20027;-64
2022/04/05 23:49:49;;;;;;;7.00;3.10;;;;;;;;;;10328539;28;20038;-63
2022/04/05 23:54:49;;;;;;;6.75;2.95;;;;;;;;;;10328769;28;20023;-64
2022/04/05 23:59:50;;;;;;;3.60;2.58;;;;;;;;;;10328066;28;20050;-64
